Time;durP1;ratioP1;P1;durP2;ratioP2;P2;SDS_P1;SDS_P2;PMS_P1;PMS_P2;Temp;Humidity;BMP_temperature;BMP_pressure;BME280_temperature;BME280_humidity;BME280_pressure;Samples;Min_cycle;Max_cycle;Signal;HPM_P1;HPM_P2
2022/04/27 00:00:34;;;;;;;12.70;10.50;;;;;;;4.85;100.00;93225.34;2090306;28;20025;-81
2022/04/27 00:01:35;;;;;;;11.63;10.23;;;;;;;4.88;100.00;93232.53;2093776;28;20027;-82
2022/04/27 00:02:36;;;;;;;14.02;11.02;;;;;;;4.77;100.00;93232.50;2093971;28;20420;-84
2022/04/27 00:03:37;;;;;;;13.48;10.05;;;;;;;4.74;100.00;93223.44;2098372;28;20024;-84
2022/04/27 00:04:38;;;;;;;10.68;9.57;;;;;;;4.73;100.00;93213.97;2106756;28;20103;-82
2022/04/27 00:05:39;;;;;;;10.65;9.50;;;;;;;4.84;100.00;93218.53;2106605;28;20089;-84
2022/04/27 00:06:40;;;;;;;10.35;9.20;;;;;;;4.76;100.00;93226.47;2106459;28;20028;-81
2022/04/27 00:07:41;;;;;;;11.65;9.98;;;;;;;4.76;100.00;93226.47;2102764;28;20019;-81
2022/04/27 00:08:42;;;;;;;11.07;9.85;;;;;;;4.71;100.00;93223.44;2106760;28;20024;-81
2022/04/27 00:09:43;;;;;;;11.40;9.95;;;;;;;4.75;100.00;93224.19;2098410;28;20458;-84
2022/04/27 00:10:44;;;;;;;10.10;8.80;;;;;;;4.83;100.00;93223.09;2106797;28;20500;-84
2022/04/27 00:11:45;;;;;;;10.50;9.30;;;;;;;4.89;100.00;93228.75;2106659;28;20113;-81
2022/04/27 00:12:47;;;;;;;9.82;8.82;;;;;;;4.82;100.00;93231.38;2089904;28;20028;-82
2022/04/27 00:13:48;;;;;;;12.55;9.93;;;;;;;4.74;100.00;93231.38;2089675;28;20021;-84
2022/04/27 00:14:49;;;;;;;9.98;8.82;;;;;;;4.69;100.00;93226.44;2098186;28;20469;-84
2022/04/27 00:15:50;;;;;;;10.40;9.40;;;;;;;4.72;100.00;93224.94;2098113;28;20048;-84
2022/04/27 00:16:51;;;;;;;10.35;9.10;;;;;;;4.65;100.00;93222.28;2098212;28;20094;-82
2022/04/27 00:17:52;;;;;;;10.85;9.75;;;;;;;4.73;100.00;93221.16;2106706;28;20588;-81
2022/04/27 00:18:53;;;;;;;12.45;8.50;;;;;;;4.71;100.00;93223.44;2098246;28;20484;-82
2022/04/27 00:19:54;;;;;;;11.00;9.40;;;;;;;4.70;100.00;93221.94;2090073;28;20021;-81
2022/04/27 00:20:56;;;;;;;11.07;9.38;;;;;;;4.75;100.00;93221.56;2089962;28;20474;-81
2022/04/27 00:21:57;;;;;;;12.98;8.63;;;;;;;4.74;100.00;93222.66;2106919;28;20068;-83
2022/04/27 00:22:58;;;;;;;9.98;8.93;;;;;;;4.69;100.00;93226.44;2098165;28;20032;-82
2022/04/27 00:23:59;;;;;;;10.70;9.23;;;;;;;4.68;100.00;93221.53;2089912;28;20017;-84
2022/04/27 00:25:01;;;;;;;11.07;9.40;;;;;;;4.64;100.00;93215.47;2090018;28;20168;-82
2022/04/27 00:26:02;;;;;;;10.38;8.50;;;;;;;4.58;100.00;93219.63;2089320;28;20021;-83
2022/04/27 00:27:03;;;;;;;10.55;9.05;;;;;;;4.55;100.00;93221.13;2089959;28;20040;-83
2022/04/27 00:28:05;;;;;;;10.82;8.98;;;;;;;4.52;100.00;93211.25;2098244;28;20020;-83
2022/04/27 00:29:06;;;;;;;11.43;8.95;;;;;;;4.41;100.00;93208.59;2090047;28;20079;-81
2022/04/27 00:30:07;;;;;;;9.30;8.40;;;;;;;4.43;100.00;93208.22;2085875;28;20478;-82
2022/04/27 00:31:08;;;;;;;7.65;6.95;;;;;;;4.64;100.00;93218.13;2089930;28;20045;-85
2022/04/27 00:32:09;;;;;;;7.85;7.05;;;;;;;4.51;100.00;93221.09;2090064;28;20029;-83
2022/04/27 00:33:11;;;;;;;8.38;7.50;;;;;;;4.39;100.00;93218.81;2097463;28;20017;-82
2022/04/27 00:34:12;;;;;;;8.98;8.07;;;;;;;4.31;100.00;93211.22;2090104;28;20054;-84
2022/04/27 00:35:13;;;;;;;9.07;8.13;;;;;;;4.27;100.00;93211.97;2090015;28;20488;-83
2022/04/27 00:36:14;;;;;;;9.45;8.45;;;;;;;4.21;100.00;93213.44;2089912;28;20044;-82
2022/04/27 00:37:15;;;;;;;9.10;8.07;;;;;;;4.13;100.00;93221.75;2089458;28;20025;-82
2022/04/27 00:38:16;;;;;;;9.98;7.85;;;;;;;4.12;100.00;93220.22;2089249;28;20043;-82
2022/04/27 00:39:17;;;;;;;11.00;7.53;;;;;;;4.06;100.00;93219.06;2081599;28;20474;-82
2022/04/27 00:40:18;;;;;;;8.30;7.50;;;;;;;4.00;100.00;93222.06;2081875;28;20112;-80
2022/04/27 00:41:58;;;;;;;11.40;8.43;;;;;;;4.02;100.00;93224.31;2106369;28;20028;-83
2022/04/27 00:42:59;;;;;;;8.95;7.18;;;;;;;4.02;100.00;93217.16;2101369;28;20384;-82
2022/04/27 00:44:00;;;;;;;9.20;7.90;;;;;;;4.00;100.00;93219.41;2089923;28;20025;-82
2022/04/27 00:45:03;;;;;;;9.27;7.82;;;;;;;3.92;100.00;93219.75;2091780;28;20020;-84
2022/04/27 00:46:04;;;;;;;8.70;7.80;;;;;;;3.87;100.00;93220.13;2090236;28;20363;-82
2022/04/27 00:47:06;;;;;;;8.80;6.97;;;;;;;3.82;100.00;93223.09;2089867;28;20069;-83
2022/04/27 00:48:07;;;;;;;11.25;7.78;;;;;;;3.80;100.00;93226.09;2098132;28;20054;-83
2022/04/27 00:49:08;;;;;;;9.50;8.13;;;;;;;3.76;100.00;93234.00;2089925;28;20032;-84
2022/04/27 00:50:10;;;;;;;8.07;7.28;;;;;;;3.77;100.00;93230.22;2088834;28;20029;-84
2022/04/27 00:51:17;;;;;;;8.35;7.43;;;;;;;3.72;100.00;93227.94;2094654;28;20111;-82
2022/04/27 00:52:19;;;;;;;8.63;7.72;;;;;;;3.72;100.00;93227.94;2090858;28;20028;-85
2022/04/27 00:53:20;;;;;;;8.23;7.35;;;;;;;3.76;100.00;93234.00;2097545;28;20020;-81
2022/04/27 00:54:22;;;;;;;7.35;6.65;;;;;;;3.73;100.00;93236.63;2097833;28;20115;-81
2022/04/27 00:55:23;;;;;;;8.20;7.38;;;;;;;3.73;100.00;93239.28;2098044;28;20528;-83
2022/04/27 00:56:25;;;;;;;7.90;7.10;;;;;;;3.68;100.00;93226.41;2089745;28;20036;-85
2022/04/27 00:57:26;;;;;;;9.20;7.15;;;;;;;3.69;100.00;93231.34;2098340;28;20032;-85
2022/04/27 00:58:27;;;;;;;7.90;7.10;;;;;;;3.72;100.00;93235.13;2098109;28;20542;-83
2022/04/27 00:59:28;;;;;;;9.77;7.20;;;;;;;3.70;100.00;93237.38;2089720;28;20029;-82
2022/04/27 01:00:29;;;;;;;8.13;7.10;;;;;;;3.68;100.00;93235.09;2089689;28;20028;-84
2022/04/27 01:01:32;;;;;;;7.88;7.07;;;;;;;3.73;100.00;93241.91;2088543;28;20402;-82
2022/04/27 01:02:42;;;;;;;8.15;7.07;;;;;;;3.74;100.00;93230.25;2097097;28;20035;-81
2022/04/27 01:03:43;;;;;;;8.68;7.47;;;;;;;3.70;100.00;93232.84;2107229;28;20766;-83
2022/04/27 01:04:45;;;;;;;7.57;6.82;;;;;;;3.67;100.00;93230.94;2114337;28;20034;-82
2022/04/27 01:05:48;;;;;;;8.30;7.35;;;;;;;3.75;100.00;93240.44;2114378;28;20050;-82
2022/04/27 01:06:50;;;;;;;9.07;7.07;;;;;;;3.82;100.00;93234.44;2105720;28;20020;-84
2022/04/27 01:07:52;;;;;;;8.05;7.25;;;;;;;3.71;100.00;93242.28;2095253;28;20020;-83
2022/04/27 01:08:54;;;;;;;7.65;6.88;;;;;;;3.72;100.00;93245.69;2089786;28;20024;-85
2022/04/27 01:09:55;;;;;;;9.20;6.70;;;;;;;3.55;100.00;93244.44;2081386;28;20543;-83
2022/04/27 01:10:59;;;;;;;7.78;6.88;;;;;;;3.50;100.00;93240.25;2096425;28;20516;-82
2022/04/27 01:12:01;;;;;;;7.53;6.63;;;;;;;3.45;100.00;93242.50;2106010;28;20373;-85
2022/04/27 01:13:02;;;;;;;8.00;6.53;;;;;;;3.32;100.00;93247.31;2089603;28;20049;-82
2022/04/27 01:14:03;;;;;;;7.47;6.70;;;;;;;3.29;100.00;93245.41;2104896;28;20036;-82
2022/04/27 01:15:05;;;;;;;7.18;6.47;;;;;;;3.24;100.00;93243.09;2097805;28;20378;-83
2022/04/27 01:16:07;;;;;;;8.02;7.22;;;;;;;3.17;100.00;93235.88;2081453;28;20025;-83
2022/04/27 01:17:08;;;;;;;10.00;7.35;;;;;;;3.16;100.00;93241.50;2097854;28;20542;-83
2022/04/27 01:18:09;;;;;;;7.18;6.47;;;;;;;3.08;100.00;93240.72;2089604;28;20597;-82
2022/04/27 01:19:10;;;;;;;7.45;6.60;;;;;;;3.13;100.00;93243.03;2089609;28;20020;-82
2022/04/27 01:20:11;;;;;;;7.07;6.28;;;;;;;3.09;100.00;93241.47;2097697;28;20050;-84
2022/04/27 01:21:12;;;;;;;7.70;6.90;;;;;;;3.14;100.00;93239.25;2106215;28;20024;-84
2022/04/27 01:22:13;;;;;;;9.07;6.30;;;;;;;3.16;100.00;93246.78;2097653;28;20481;-81
2022/04/27 01:23:14;;;;;;;7.40;6.70;;;;;;;3.16;100.00;93238.88;2089367;28;20049;-82
2022/04/27 01:24:20;;;;;;;7.55;6.65;;;;;;;3.27;100.00;93245.00;2097701;28;20028;-83
2022/04/27 01:25:21;;;;;;;7.78;6.68;;;;;;;3.07;100.00;93238.44;2098687;28;20020;-81
2022/04/27 01:26:22;;;;;;;7.10;6.28;;;;;;;2.97;100.00;93239.84;2105571;28;20024;-81
2022/04/27 01:27:23;;;;;;;6.82;6.05;;;;;;;2.95;100.00;93240.22;2089444;28;20032;-84
2022/04/27 01:28:27;;;;;;;6.75;5.97;;;;;;;2.83;100.00;93239.72;2097732;28;20032;-82
2022/04/27 01:29:28;;;;;;;7.65;6.22;;;;;;;2.80;100.00;93238.56;2106306;28;20023;-83
2022/04/27 01:30:29;;;;;;;7.53;6.32;;;;;;;2.79;100.00;93247.63;2096600;28;20024;-82
2022/04/27 01:31:30;;;;;;;6.93;6.22;;;;;;;2.77;100.00;93242.72;2088797;28;20031;-82
2022/04/27 01:32:31;;;;;;;7.35;6.35;;;;;;;2.77;100.00;93244.59;2089488;28;20545;-83
2022/04/27 01:33:35;;;;;;;10.15;6.68;;;;;;;2.71;100.00;93244.13;2088603;28;20029;-80
2022/04/27 01:34:36;;;;;;;7.45;6.32;;;;;;;2.89;100.00;93243.56;2089449;28;20033;-83
2022/04/27 01:35:37;;;;;;;7.82;6.93;;;;;;;3.00;100.00;93242.53;2080933;28;20032;-83
2022/04/27 01:36:39;;;;;;;6.55;5.57;;;;;;;3.01;100.00;93240.66;2089443;28;20027;-81
2022/04/27 01:38:59;;;;;;;6.28;5.63;;;;;;;2.75;100.00;93234.38;2100020;28;20028;-83
2022/04/27 01:40:00;;;;;;;6.80;6.10;;;;;;;2.73;100.00;93228.72;2089185;28;20032;-83
2022/04/27 01:41:02;;;;;;;7.25;6.28;;;;;;;2.79;100.00;93231.78;2112944;28;20377;-82
2022/04/27 01:42:04;;;;;;;7.57;6.30;;;;;;;2.83;100.00;93234.47;2089506;28;20036;-84
2022/04/27 01:43:05;;;;;;;7.47;6.22;;;;;;;2.84;100.00;93231.44;2093770;28;20021;-82
2022/04/27 01:44:06;;;;;;;7.80;6.22;;;;;;;2.76;100.00;93240.41;2093271;28;20094;-82
2022/04/27 01:45:08;;;;;;;6.28;5.55;;;;;;;2.85;100.00;93232.94;2097642;28;20073;-82
2022/04/27 01:46:09;;;;;;;6.70;5.95;;;;;;;2.80;100.00;93235.94;2097316;28;20028;-84
2022/04/27 01:47:10;;;;;;;6.35;5.43;;;;;;;2.95;100.00;93229.66;2081294;28;20049;-83
2022/04/27 01:48:11;;;;;;;5.97;5.38;;;;;;;2.93;100.00;93237.19;2089445;28;20032;-84
2022/04/27 01:49:13;;;;;;;6.55;5.57;;;;;;;2.94;100.00;93233.44;2098608;28;20025;-82
2022/04/27 01:50:14;;;;;;;7.20;5.25;;;;;;;3.00;100.00;93237.25;2096886;28;21115;-82
2022/04/27 01:51:15;;;;;;;6.65;5.95;;;;;;;2.96;100.00;93235.72;2080922;28;20061;-83
2022/04/27 01:54:56;;;;;;;6.20;5.60;;;;;;;3.10;100.00;93237.72;2100063;28;20028;-83
2022/04/27 01:55:57;;;;;;;6.75;5.78;;;;;;;3.08;100.00;93240.72;2089248;28;20501;-84
2022/04/27 01:56:57;;;;;;;6.70;6.03;;;;;;;3.09;100.00;93241.47;2089212;28;20050;-82
2022/04/27 01:57:59;;;;;;;6.93;5.88;;;;;;;3.04;100.00;93239.94;2089317;28;20032;-82
2022/04/27 01:59:00;;;;;;;6.70;5.78;;;;;;;3.04;100.00;93239.94;2100812;28;20111;-83
2022/04/27 02:00:01;;;;;;;6.88;6.18;;;;;;;3.02;100.00;93242.91;2089368;28;20508;-82
2022/04/27 02:01:03;;;;;;;6.53;5.70;;;;;;;2.98;100.00;93241.38;2097601;28;20028;-82
2022/04/27 02:02:03;;;;;;;6.20;5.60;;;;;;;3.04;100.00;93245.22;2096522;28;20565;-84
2022/04/27 02:03:05;;;;;;;5.95;5.32;;;;;;;3.01;100.00;93246.69;2089194;28;20064;-84
2022/04/27 02:04:06;;;;;;;6.97;5.72;;;;;;;2.98;100.00;93246.66;2097204;28;20493;-84
2022/04/27 02:05:08;;;;;;;10.35;5.93;;;;;;;3.08;100.00;93251.28;2089305;28;20098;-81
2022/04/27 02:06:09;;;;;;;6.05;5.45;;;;;;;3.01;100.00;93248.56;2105649;28;20097;-83
2022/04/27 02:07:10;;;;;;;7.40;6.60;;;;;;;3.08;100.00;93250.53;2105714;28;20579;-82
2022/04/27 02:08:12;;;;;;;6.80;5.43;;;;;;;3.12;100.00;93248.69;2089330;28;20032;-83
2022/04/27 02:09:13;;;;;;;6.57;5.97;;;;;;;3.10;100.00;93248.28;2097781;28;20082;-83
2022/04/27 02:10:14;;;;;;;6.15;5.63;;;;;;;3.13;100.00;93244.91;2097648;28;20051;-82
2022/04/27 02:11:15;;;;;;;6.20;5.55;;;;;;;3.11;100.00;93247.13;2089108;28;20037;-83
2022/04/27 02:12:16;;;;;;;7.45;6.18;;;;;;;3.10;100.00;93253.56;2089192;28;20119;-83
2022/04/27 02:13:17;;;;;;;6.30;5.63;;;;;;;3.16;100.00;93246.78;2088878;28;20842;-84
2022/04/27 02:14:18;;;;;;;6.25;5.65;;;;;;;3.23;100.00;93241.59;2080279;28;20029;-83
2022/04/27 02:15:20;;;;;;;6.10;5.40;;;;;;;3.20;100.00;93250.22;2080970;28;20037;-83
2022/04/27 02:16:25;;;;;;;7.15;6.22;;;;;;;3.16;100.00;93247.59;2097725;28;20016;-83
2022/04/27 02:17:26;;;;;;;6.25;5.57;;;;;;;3.21;100.00;93247.25;2097525;28;20028;-83
2022/04/27 02:18:27;;;;;;;7.10;5.57;;;;;;;3.22;100.00;93246.13;2089140;28;20025;-84
2022/04/27 02:19:28;;;;;;;6.47;5.80;;;;;;;3.17;100.00;93243.81;2100688;28;20016;-81
2022/04/27 02:20:30;;;;;;;6.28;5.68;;;;;;;3.21;100.00;93244.59;2105666;28;20031;-85
2022/04/27 02:21:31;;;;;;;6.20;5.47;;;;;;;3.14;100.00;93236.59;2105707;28;20042;-82
2022/04/27 02:22:36;;;;;;;6.53;5.80;;;;;;;3.21;100.00;93239.31;2097540;28;20016;-85
2022/04/27 02:23:37;;;;;;;5.57;5.07;;;;;;;3.18;100.00;93240.03;2089814;28;20032;-80
2022/04/27 02:24:38;;;;;;;7.95;6.03;;;;;;;3.37;100.00;93239.03;2097433;28;20024;-82
2022/04/27 02:25:39;;;;;;;6.45;5.85;;;;;;;3.20;100.00;93242.31;2096802;28;20469;-82
2022/04/27 02:26:42;;;;;;;5.50;5.00;;;;;;;3.30;100.00;93246.19;2080450;28;20087;-82
2022/04/27 02:27:43;;;;;;;6.22;5.57;;;;;;;3.25;100.00;93253.31;2098266;28;20035;-82
2022/04/27 02:28:44;;;;;;;6.45;5.60;;;;;;;3.17;100.00;93248.34;2106771;28;20447;-81
2022/04/27 02:29:46;;;;;;;7.60;5.82;;;;;;;3.22;100.00;93250.63;2097470;28;20036;-84
2022/04/27 02:30:47;;;;;;;6.60;5.40;;;;;;;3.22;100.00;93250.63;2097623;28;20021;-82
2022/04/27 02:31:49;;;;;;;6.32;5.70;;;;;;;3.26;100.00;93248.78;2097506;28;20466;-85
2022/04/27 02:32:50;;;;;;;6.30;5.70;;;;;;;3.30;100.00;93246.19;2089284;28;20122;-82
2022/04/27 02:33:51;;;;;;;6.35;5.43;;;;;;;3.32;100.00;93244.66;2080935;28;20041;-83
2022/04/27 02:34:53;;;;;;;6.50;5.65;;;;;;;3.36;100.00;93247.34;2089324;28;20025;-83
2022/04/27 02:36:04;;;;;;;7.35;6.65;;;;;;;3.39;100.00;93251.91;2097197;28;20147;-82
2022/04/27 02:37:05;;;;;;;9.88;5.88;;;;;;;3.33;100.00;93254.09;2090197;28;20169;-83
2022/04/27 02:38:06;;;;;;;6.85;5.70;;;;;;;3.38;100.00;93243.22;2087652;28;20120;-82
2022/04/27 02:39:07;;;;;;;7.65;5.78;;;;;;;3.35;100.00;93251.88;2089340;28;20055;-82
2022/04/27 02:40:09;;;;;;;6.85;6.13;;;;;;;3.36;100.00;93245.47;2097460;28;20028;-83
2022/04/27 02:41:10;;;;;;;6.57;5.90;;;;;;;3.41;100.00;93239.06;2097493;28;20657;-83
2022/04/27 02:42:11;;;;;;;6.38;5.68;;;;;;;3.42;100.00;93246.63;2097094;28;20025;-81
2022/04/27 02:43:12;;;;;;;6.63;5.63;;;;;;;3.42;100.00;93236.06;2105850;28;20051;-85
2022/04/27 02:44:13;;;;;;;6.82;5.43;;;;;;;3.34;100.00;93234.50;2105738;28;20553;-83
2022/04/27 02:45:14;;;;;;;6.47;5.55;;;;;;;3.30;100.00;93231.09;2097445;28;20052;-82
2022/04/27 02:46:15;;;;;;;6.97;5.93;;;;;;;3.23;100.00;93237.06;2097254;28;20035;-85
2022/04/27 02:47:16;;;;;;;6.82;5.60;;;;;;;3.18;100.00;93231.34;2097127;28;20091;-82
2022/04/27 02:48:17;;;;;;;5.82;5.07;;;;;;;3.11;100.00;93231.28;2097545;28;20017;-82
2022/04/27 02:51:57;;;;;;;4.78;4.28;;;;;;;2.92;100.00;93243.59;2122632;28;20056;-83
2022/04/27 02:52:58;;;;;;;5.32;4.82;;;;;;;2.96;100.00;93238.34;2105552;28;20115;-83
2022/04/27 02:53:59;;;;;;;6.03;4.65;;;;;;;2.90;100.00;93243.22;2105629;28;20027;-82
2022/04/27 02:55:00;;;;;;;5.40;4.55;;;;;;;2.87;100.00;93246.56;2097248;28;20048;-83
2022/04/27 02:56:03;;;;;;;5.10;4.60;;;;;;;2.80;100.00;93237.81;2097134;28;20107;-84
2022/04/27 02:57:04;;;;;;;4.28;3.88;;;;;;;2.81;100.00;93248.03;2105512;28;20037;-84
2022/04/27 02:58:05;;;;;;;5.70;4.78;;;;;;;2.72;100.00;93248.31;2105599;28;20517;-83
2022/04/27 02:59:06;;;;;;;6.57;4.32;;;;;;;2.70;100.00;93249.78;2097378;28;20024;-82
2022/04/27 03:00:07;;;;;;;4.90;4.40;;;;;;;2.78;100.00;93248.75;2088947;28;20044;-82
2022/04/27 03:01:08;;;;;;;7.60;4.93;;;;;;;2.70;100.00;93253.19;2097066;28;20056;-83
2022/04/27 03:02:09;;;;;;;9.10;4.50;;;;;;;2.72;100.00;93252.81;2079983;28;20139;-80
2022/04/27 03:03:11;;;;;;;5.97;4.75;;;;;;;2.66;100.00;93252.38;2089015;28;20024;-81
2022/04/27 03:04:12;;;;;;;4.97;4.47;;;;;;;2.64;100.00;93253.88;2102378;28;20016;-82
2022/04/27 03:05:13;;;;;;;5.35;4.85;;;;;;;2.63;100.00;93266.28;2097226;28;20477;-84
2022/04/27 03:06:14;;;;;;;8.93;5.43;;;;;;;2.59;100.00;93262.09;2097288;28;20020;-82
2022/04/27 03:07:22;;;;;;;6.22;5.32;;;;;;;2.47;100.00;93263.88;2096998;28;20020;-84
2022/04/27 03:08:23;;;;;;;5.70;5.10;;;;;;;2.56;100.00;93268.13;2099235;28;20493;-83
2022/04/27 03:09:24;;;;;;;5.57;4.97;;;;;;;2.50;100.00;93262.38;2097203;28;20031;-84
2022/04/27 03:10:25;;;;;;;6.00;5.00;;;;;;;2.50;100.00;93260.53;2087748;28;20116;-85
2022/04/27 03:11:26;;;;;;;6.00;5.40;;;;;;;2.51;100.00;93267.31;2097232;28;20039;-83
2022/04/27 03:12:27;;;;;;;6.72;5.97;;;;;;;2.48;100.00;93262.00;2097055;28;20025;-82
2022/04/27 03:13:28;;;;;;;7.93;5.72;;;;;;;2.53;100.00;93264.31;2088314;28;20040;-83
2022/04/27 03:14:29;;;;;;;5.72;5.13;;;;;;;2.50;100.00;93265.81;2088660;28;20429;-86
2022/04/27 03:15:32;;;;;;;6.03;5.28;;;;;;;2.57;100.00;93267.75;2089135;28;20496;-81
2022/04/27 03:16:33;;;;;;;6.57;5.20;;;;;;;2.62;100.00;93269.31;2090592;28;20025;-83
2022/04/27 03:17:34;;;;;;;5.70;5.13;;;;;;;2.52;100.00;93263.56;2098900;28;20031;-84
2022/04/27 03:18:35;;;;;;;6.07;5.47;;;;;;;2.61;100.00;93270.44;2106787;28;20031;-82
2022/04/27 03:19:37;;;;;;;6.35;5.55;;;;;;;2.64;100.00;93267.84;2098867;28;20461;-82
2022/04/27 03:20:38;;;;;;;7.43;6.03;;;;;;;2.83;100.00;93266.88;2098972;28;20020;-81
2022/04/27 03:21:39;;;;;;;6.53;5.78;;;;;;;2.89;100.00;93269.94;2090530;28;20024;-83
2022/04/27 03:22:40;;;;;;;6.38;5.53;;;;;;;2.79;100.00;93271.38;2090495;28;20109;-84
2022/04/27 03:23:41;;;;;;;6.72;5.50;;;;;;;2.72;100.00;93274.72;2090558;28;20067;-85
2022/04/27 03:24:42;;;;;;;8.10;5.55;;;;;;;2.75;100.00;93281.88;2090690;28;20488;-82
2022/04/27 03:25:43;;;;;;;6.60;5.35;;;;;;;2.73;100.00;93267.56;2098375;28;20029;-81
2022/04/27 03:26:44;;;;;;;6.38;5.35;;;;;;;2.70;100.00;93268.25;2106398;28;20019;-82
2022/04/27 03:27:46;;;;;;;5.53;5.03;;;;;;;2.76;100.00;93266.81;2098659;28;20464;-83
2022/04/27 03:28:47;;;;;;;6.00;5.40;;;;;;;2.76;100.00;93272.09;2098387;28;20024;-85
2022/04/27 03:29:48;;;;;;;5.30;4.80;;;;;;;2.77;100.00;93271.75;2104646;28;20023;-82
2022/04/27 03:30:49;;;;;;;5.50;5.00;;;;;;;2.73;100.00;93270.94;2090291;28;20363;-83
2022/04/27 03:31:50;;;;;;;6.80;5.25;;;;;;;2.72;100.00;93276.56;2098891;28;20048;-85
2022/04/27 03:32:51;;;;;;;6.45;5.70;;;;;;;2.69;100.00;93270.16;2098722;28;20016;-86
2022/04/27 03:33:52;;;;;;;6.07;5.47;;;;;;;2.67;100.00;93276.91;2106771;28;20047;-82
2022/04/27 03:34:53;;;;;;;6.13;5.53;;;;;;;2.72;100.00;93274.72;2098959;28;20028;-85
2022/04/27 03:35:54;;;;;;;7.07;5.80;;;;;;;2.76;100.00;93274.72;2106988;28;20031;-85
2022/04/27 03:36:55;;;;;;;6.00;5.40;;;;;;;2.73;100.00;93275.47;2106831;28;20034;-83
2022/04/27 03:37:58;;;;;;;7.43;5.72;;;;;;;2.80;100.00;93277.41;2096924;28;20047;-83
2022/04/27 03:38:59;;;;;;;7.40;5.30;;;;;;;2.84;100.00;93283.47;2103804;28;20032;-82
2022/04/27 03:40:00;;;;;;;5.90;5.28;;;;;;;2.85;100.00;93279.72;2090571;28;20033;-83
2022/04/27 03:41:01;;;;;;;5.35;4.85;;;;;;;2.91;100.00;93284.31;2098036;28;20392;-81
2022/04/27 03:42:03;;;;;;;8.35;5.30;;;;;;;2.99;100.00;93282.50;2098715;28;20791;-84
2022/04/27 03:43:04;;;;;;;6.10;5.43;;;;;;;2.97;100.00;93285.50;2090694;28;20562;-84
2022/04/27 03:44:05;;;;;;;6.78;5.75;;;;;;;2.99;100.00;93287.78;2098249;28;20013;-81
2022/04/27 03:45:07;;;;;;;5.68;5.18;;;;;;;3.03;100.00;93286.69;2098638;28;20020;-84
2022/04/27 03:46:07;;;;;;;7.80;5.93;;;;;;;3.12;100.00;93293.56;2098241;28;20027;-82
2022/04/27 03:47:08;;;;;;;6.28;5.40;;;;;;;3.15;100.00;93288.28;2090387;28;20024;-81
2022/04/27 03:48:10;;;;;;;8.57;5.65;;;;;;;3.13;100.00;93295.84;2089948;28;20102;-82
2022/04/27 03:49:11;;;;;;;5.90;5.25;;;;;;;3.13;100.00;93287.16;2089882;28;20071;-82
2022/04/27 03:50:12;;;;;;;6.10;5.35;;;;;;;3.13;100.00;93292.44;2097853;28;20666;-84
2022/04/27 03:51:14;;;;;;;6.38;5.72;;;;;;;3.17;100.00;93290.59;2098389;28;20484;-82
2022/04/27 03:52:15;;;;;;;7.75;5.38;;;;;;;3.17;100.00;93298.53;2098580;28;20469;-81
2022/04/27 03:53:16;;;;;;;8.18;5.90;;;;;;;3.14;100.00;93296.59;2098430;28;20031;-81
2022/04/27 03:54:17;;;;;;;7.45;6.07;;;;;;;3.15;100.00;93296.22;2098483;28;20016;-83
2022/04/27 03:55:18;;;;;;;6.03;5.43;;;;;;;3.18;100.00;93300.03;2098592;28;20572;-83
2022/04/27 03:56:19;;;;;;;6.88;5.90;;;;;;;3.20;100.00;93297.78;2089953;28;20078;-84
2022/04/27 03:57:20;;;;;;;6.63;5.93;;;;;;;3.26;100.00;93301.63;2086879;28;20025;-82
2022/04/27 03:58:21;;;;;;;8.38;6.53;;;;;;;3.28;100.00;93297.47;2098446;28;20032;-83
2022/04/27 03:59:22;;;;;;;6.15;5.55;;;;;;;3.30;100.00;93296.38;2093817;28;20389;-84
2022/04/27 04:00:23;;;;;;;6.35;5.50;;;;;;;3.31;100.00;93293.34;2092211;28;20078;-82
2022/04/27 04:01:24;;;;;;;6.75;5.85;;;;;;;3.31;100.00;93295.25;2092221;28;20068;-83
2022/04/27 04:02:25;;;;;;;6.68;5.90;;;;;;;3.28;100.00;93294.81;2089872;28;20116;-82
2022/04/27 04:03:26;;;;;;;6.65;6.03;;;;;;;3.30;100.00;93289.19;2098482;28;20028;-84
2022/04/27 04:04:27;;;;;;;6.90;5.95;;;;;;;3.28;100.00;93291.44;2106674;28;20020;-81
2022/04/27 04:05:29;;;;;;;6.55;5.82;;;;;;;3.34;100.00;93295.28;2098329;28;20038;-84
2022/04/27 04:06:30;;;;;;;7.95;6.18;;;;;;;3.42;100.00;93296.81;2098398;28;20035;-81
2022/04/27 04:07:32;;;;;;;6.95;6.22;;;;;;;3.37;100.00;93299.06;2095613;28;20091;-84
2022/04/27 04:08:33;;;;;;;6.45;5.82;;;;;;;3.38;100.00;93296.06;2082055;28;20262;-85
2022/04/27 04:09:33;;;;;;;7.22;6.53;;;;;;;3.40;100.00;93298.31;2081890;28;20737;-82
2022/04/27 04:10:35;;;;;;;5.82;5.22;;;;;;;3.41;100.00;93302.47;2092327;28;20020;-83
2022/04/27 04:11:36;;;;;;;9.70;6.13;;;;;;;3.38;100.00;93293.41;2090115;28;20036;-84
2022/04/27 04:12:37;;;;;;;6.93;5.88;;;;;;;3.35;100.00;93299.44;2089969;28;20110;-82
2022/04/27 04:13:38;;;;;;;6.10;5.50;;;;;;;3.40;100.00;93301.72;2097956;28;20028;-84
2022/04/27 04:14:40;;;;;;;9.07;5.32;;;;;;;3.44;100.00;93293.84;2089556;28;20528;-83
2022/04/27 04:15:41;;;;;;;7.10;6.25;;;;;;;3.45;100.00;93304.03;2090194;28;20021;-83
2022/04/27 04:16:42;;;;;;;6.22;5.38;;;;;;;3.47;100.00;93301.03;2089945;28;20099;-83
2022/04/27 04:17:46;;;;;;;6.03;5.40;;;;;;;3.46;100.00;93300.25;2090014;28;20506;-83
2022/04/27 04:18:46;;;;;;;5.57;5.07;;;;;;;3.43;100.00;93303.66;2100995;28;20479;-83
2022/04/27 04:19:48;;;;;;;6.72;6.03;;;;;;;3.56;100.00;93298.06;2106678;28;20027;-83
2022/04/27 04:20:49;;;;;;;6.18;5.57;;;;;;;3.51;100.00;93307.88;2098317;28;20025;-82
2022/04/27 04:21:49;;;;;;;7.00;6.00;;;;;;;3.61;100.00;93297.75;2081752;28;20034;-84
2022/04/27 04:22:50;;;;;;;7.75;6.10;;;;;;;3.64;100.00;93302.28;2098343;28;20021;-84
2022/04/27 04:23:51;;;;;;;6.75;5.70;;;;;;;3.58;100.00;93296.56;2108695;28;20028;-83
2022/04/27 04:28:52;;;;;;;7.43;6.72;;;;;;;3.50;100.00;93295.75;2115021;28;20023;-82
2022/04/27 04:29:55;;;;;;;7.97;7.13;;;;;;;3.60;100.00;93301.50;2106734;28;20436;-83
2022/04/27 04:31:04;;;;;;;8.30;6.95;;;;;;;3.54;100.00;93306.38;2098122;28;20028;-84
2022/04/27 04:32:06;;;;;;;7.78;7.00;;;;;;;3.50;100.00;93305.56;2094854;28;20623;-83
2022/04/27 04:33:07;;;;;;;8.13;7.40;;;;;;;3.42;100.00;93312.69;2088986;28;20031;-83
2022/04/27 04:34:08;;;;;;;7.80;6.53;;;;;;;3.41;100.00;93310.41;2103635;28;20750;-84
2022/04/27 04:35:09;;;;;;;6.63;6.03;;;;;;;3.35;100.00;93306.59;2095416;28;20028;-84
2022/04/27 04:36:10;;;;;;;8.18;7.38;;;;;;;3.35;100.00;93301.31;2080362;28;20032;-84
2022/04/27 04:37:11;;;;;;;8.95;7.93;;;;;;;3.36;100.00;93308.88;2085779;28;20021;-82
2022/04/27 04:38:13;;;;;;;8.82;7.95;;;;;;;3.32;100.00;93305.44;2094111;28;20023;-82
2022/04/27 04:39:14;;;;;;;10.00;8.13;;;;;;;3.26;100.00;93312.19;2103655;28;20127;-82
2022/04/27 04:40:15;;;;;;;8.73;7.82;;;;;;;3.24;100.00;93322.34;2096734;28;20029;-83
2022/04/27 04:41:16;;;;;;;9.93;8.23;;;;;;;3.15;100.00;93313.94;2096771;28;20497;-82
2022/04/27 04:42:17;;;;;;;7.78;6.90;;;;;;;3.10;100.00;93306.38;2101751;28;20028;-84
2022/04/27 04:43:19;;;;;;;6.63;5.90;;;;;;;3.25;100.00;93319.34;2104984;28;20054;-82
2022/04/27 04:44:20;;;;;;;8.80;6.20;;;;;;;3.19;100.00;93315.50;2088285;28;20025;-83
2022/04/27 04:45:21;;;;;;;6.25;5.65;;;;;;;3.30;100.00;93314.84;2096433;28;20021;-85
2022/04/27 04:46:22;;;;;;;5.88;5.28;;;;;;;3.12;100.00;93320.75;2098868;28;20036;-82
2022/04/27 04:47:23;;;;;;;6.63;5.57;;;;;;;3.01;100.00;93317.97;2096984;28;20036;-82
2022/04/27 04:48:25;;;;;;;5.95;5.35;;;;;;;2.89;100.00;93312.94;2106751;28;20024;-82
2022/04/27 04:49:28;;;;;;;13.52;5.40;;;;;;;2.80;100.00;93320.41;2094451;28;20029;-83
2022/04/27 04:50:29;;;;;;;7.15;5.10;;;;;;;2.81;100.00;93321.94;2096091;28;20552;-83
2022/04/27 04:51:35;;;;;;;5.57;5.00;;;;;;;2.72;100.00;93318.78;2088567;28;20025;-84
2022/04/27 04:52:37;;;;;;;7.78;5.45;;;;;;;2.72;100.00;93326.72;2083931;28;20045;-85
2022/04/27 04:53:38;;;;;;;6.18;5.57;;;;;;;2.68;100.00;93324.06;2080582;28;20021;-84
2022/04/27 04:54:39;;;;;;;5.65;5.15;;;;;;;2.64;100.00;93330.41;2097070;28;20020;-85
2022/04/27 04:55:40;;;;;;;5.55;5.05;;;;;;;2.65;100.00;93327.41;2096671;28;20040;-84
2022/04/27 04:56:41;;;;;;;5.88;5.28;;;;;;;2.67;100.00;93333.06;2097465;28;20024;-85
2022/04/27 04:57:42;;;;;;;7.68;6.88;;;;;;;2.78;100.00;93333.19;2097170;28;20117;-85
2022/04/27 04:58:43;;;;;;;11.07;7.88;;;;;;;2.83;100.00;93334.75;2088736;28;20064;-84
2022/04/27 04:59:44;;;;;;;9.48;8.57;;;;;;;2.80;100.00;93332.84;2096970;28;20055;-83